Time;durP1;ratioP1;P1;durP2;ratioP2;P2;SDS_P1;SDS_P2;PMS_P1;PMS_P2;Temp;Humidity;BMP_temperature;BMP_pressure;BME280_temperature;BME280_humidity;BME280_pressure;Samples;Min_cycle;Max_cycle;Signal;HPM_P1;HPM_P2
2024/01/24 00:01:20;;;;;;;16.23;8.37;;;;;;;;;;4920586;29;20263;-72
2024/01/24 00:03:45;;;;;;;17.60;8.17;;;;;;;;;;4905533;29;20220;-71
2024/01/24 00:06:11;;;;;;;16.80;7.87;;;;;;;;;;4933994;29;20287;-72
2024/01/24 00:08:36;;;;;;;14.87;7.70;;;;;;;;;;4906176;29;20229;-71
2024/01/24 00:11:02;;;;;;;17.77;7.80;;;;;;;;;;4935581;28;20284;-72
2024/01/24 00:13:27;;;;;;;15.10;7.30;;;;;;;;;;4918557;29;20229;-71
2024/01/24 00:15:52;;;;;;;13.33;7.27;;;;;;;;;;4918149;29;20256;-71
2024/01/24 00:18:18;;;;;;;15.83;7.30;;;;;;;;;;4915495;29;20283;-71
2024/01/24 00:20:43;;;;;;;16.10;7.80;;;;;;;;;;4917189;29;20301;-72
2024/01/24 00:23:08;;;;;;;15.00;7.47;;;;;;;;;;4916000;29;20237;-72
2024/01/24 00:25:34;;;;;;;15.60;7.20;;;;;;;;;;4916619;29;20746;-72
2024/01/24 00:27:59;;;;;;;16.87;7.00;;;;;;;;;;4907803;29;20254;-72
2024/01/24 00:30:24;;;;;;;16.13;7.20;;;;;;;;;;4916975;28;20303;-71
2024/01/24 00:32:50;;;;;;;15.03;7.27;;;;;;;;;;4919429;29;20235;-74
2024/01/24 00:35:15;;;;;;;15.67;7.13;;;;;;;;;;4917392;28;20719;-75
2024/01/24 00:37:40;;;;;;;14.13;7.00;;;;;;;;;;4919766;29;21124;-73
2024/01/24 00:40:06;;;;;;;16.53;7.23;;;;;;;;;;4903412;29;20225;-73
2024/01/24 00:42:32;;;;;;;15.80;7.53;;;;;;;;;;4932162;28;20248;-74
2024/01/24 00:44:57;;;;;;;15.83;7.70;;;;;;;;;;4920899;29;20580;-73
2024/01/24 00:47:23;;;;;;;14.83;7.40;;;;;;;;;;4909486;28;20344;-74
2024/01/24 00:49:48;;;;;;;15.57;7.97;;;;;;;;;;4913609;29;20228;-75
2024/01/24 00:52:14;;;;;;;15.10;8.07;;;;;;;;;;4916396;29;20232;-74
2024/01/24 00:54:39;;;;;;;16.40;7.77;;;;;;;;;;4910247;29;20244;-75
2024/01/24 00:57:04;;;;;;;18.37;8.30;;;;;;;;;;4909422;29;20730;-74
2024/01/24 00:59:30;;;;;;;14.77;7.23;;;;;;;;;;4904841;29;20233;-73
2024/01/24 01:01:55;;;;;;;13.40;7.60;;;;;;;;;;4922439;29;20240;-73
2024/01/24 01:04:21;;;;;;;14.83;7.40;;;;;;;;;;4932527;28;20233;-74
2024/01/24 01:06:46;;;;;;;14.47;7.60;;;;;;;;;;4917963;29;20233;-73
2024/01/24 01:09:12;;;;;;;15.20;7.90;;;;;;;;;;4917253;28;20225;-74
2024/01/24 01:11:38;;;;;;;18.13;7.80;;;;;;;;;;4932312;28;20308;-75
2024/01/24 01:14:03;;;;;;;17.53;7.80;;;;;;;;;;4908857;28;20232;-74
2024/01/24 01:16:29;;;;;;;16.07;7.50;;;;;;;;;;4921492;29;20233;-70
2024/01/24 01:18:54;;;;;;;18.07;7.80;;;;;;;;;;4919277;29;20239;-71
2024/01/24 01:21:19;;;;;;;15.47;7.33;;;;;;;;;;4918744;29;20234;-71
2024/01/24 01:23:45;;;;;;;16.30;7.53;;;;;;;;;;4911008;29;20233;-71
2024/01/24 01:26:10;;;;;;;16.47;7.80;;;;;;;;;;4912008;29;20237;-70
2024/01/24 01:28:35;;;;;;;17.47;7.80;;;;;;;;;;4919968;29;20347;-69
2024/01/24 01:31:01;;;;;;;18.50;8.47;;;;;;;;;;4938000;29;20233;-71
2024/01/24 01:33:26;;;;;;;18.50;8.03;;;;;;;;;;4913181;29;20664;-72
2024/01/24 01:35:52;;;;;;;16.40;8.00;;;;;;;;;;4916782;29;20285;-70
2024/01/24 01:38:17;;;;;;;15.83;8.17;;;;;;;;;;4937262;28;20241;-71
2024/01/24 01:40:43;;;;;;;18.90;8.47;;;;;;;;;;4920592;29;20261;-70
2024/01/24 01:43:10;;;;;;;17.53;8.37;;;;;;;;;;4909324;29;20233;-71
2024/01/24 01:45:35;;;;;;;17.03;8.20;;;;;;;;;;4923609;29;20239;-71
2024/01/24 01:48:00;;;;;;;16.83;8.73;;;;;;;;;;4937170;29;20216;-71
2024/01/24 01:50:26;;;;;;;18.33;8.13;;;;;;;;;;4919770;29;20307;-71
2024/01/24 01:52:51;;;;;;;16.97;8.07;;;;;;;;;;4920959;29;20229;-72
2024/01/24 01:55:16;;;;;;;20.53;8.50;;;;;;;;;;4914983;29;20320;-71
2024/01/24 01:57:42;;;;;;;17.23;8.20;;;;;;;;;;4902001;29;20308;-71
2024/01/24 02:00:08;;;;;;;17.17;8.00;;;;;;;;;;4923154;28;20230;-71
2024/01/24 02:02:33;;;;;;;18.13;8.53;;;;;;;;;;4922241;29;20320;-71
2024/01/24 02:04:58;;;;;;;16.37;7.93;;;;;;;;;;4929679;29;20227;-71
2024/01/24 02:07:24;;;;;;;20.30;8.87;;;;;;;;;;4937926;28;20305;-71
2024/01/24 02:09:49;;;;;;;18.60;8.80;;;;;;;;;;4901979;29;20236;-70
2024/01/24 02:12:14;;;;;;;17.07;8.27;;;;;;;;;;4935801;28;20289;-69
2024/01/24 02:14:40;;;;;;;21.40;8.80;;;;;;;;;;4918761;29;20233;-71
2024/01/24 02:17:05;;;;;;;17.93;8.30;;;;;;;;;;4940247;28;20267;-71
2024/01/24 02:19:31;;;;;;;17.20;8.53;;;;;;;;;;4913406;29;20217;-71
2024/01/24 02:21:56;;;;;;;20.97;8.80;;;;;;;;;;4924435;29;20280;-71
2024/01/24 02:24:22;;;;;;;17.83;8.13;;;;;;;;;;4912271;29;20618;-70
2024/01/24 02:26:47;;;;;;;17.17;8.40;;;;;;;;;;4919379;29;20613;-71
2024/01/24 02:29:12;;;;;;;18.27;8.47;;;;;;;;;;4910050;29;20737;-71
2024/01/24 02:31:38;;;;;;;15.00;7.63;;;;;;;;;;4919647;29;20232;-69
2024/01/24 02:34:03;;;;;;;17.00;7.87;;;;;;;;;;4912038;29;20229;-71
2024/01/24 02:36:28;;;;;;;15.37;7.53;;;;;;;;;;4914785;29;20292;-70
2024/01/24 02:38:54;;;;;;;17.37;7.60;;;;;;;;;;4906299;29;20225;-71
2024/01/24 02:41:20;;;;;;;14.00;6.80;;;;;;;;;;4918246;28;20327;-71
2024/01/24 02:43:46;;;;;;;15.77;7.00;;;;;;;;;;4917334;29;20244;-71
2024/01/24 02:46:11;;;;;;;13.77;6.50;;;;;;;;;;4920509;29;20229;-71
2024/01/24 02:48:36;;;;;;;15.20;7.03;;;;;;;;;;4916431;29;20750;-71
2024/01/24 02:51:01;;;;;;;16.60;6.73;;;;;;;;;;4904463;29;20247;-72
2024/01/24 02:53:27;;;;;;;15.67;7.10;;;;;;;;;;4902173;29;20754;-72
2024/01/24 02:55:52;;;;;;;16.73;7.30;;;;;;;;;;4938500;28;20239;-71
2024/01/24 02:58:18;;;;;;;16.50;6.77;;;;;;;;;;4919641;29;20228;-71
2024/01/24 03:00:43;;;;;;;15.63;7.00;;;;;;;;;;4937853;28;20241;-70
2024/01/24 03:03:08;;;;;;;14.57;7.33;;;;;;;;;;4906883;29;20236;-70
2024/01/24 03:05:34;;;;;;;14.57;7.67;;;;;;;;;;4912788;29;20254;-71
2024/01/24 03:07:59;;;;;;;17.53;7.27;;;;;;;;;;4912406;29;20267;-70
2024/01/24 03:10:27;;;;;;;17.13;7.63;;;;;;;;;;4919722;29;20243;-70
2024/01/24 03:12:53;;;;;;;17.30;7.90;;;;;;;;;;4920433;29;20232;-70
2024/01/24 03:15:18;;;;;;;16.23;7.80;;;;;;;;;;4907113;29;20224;-70
2024/01/24 03:17:43;;;;;;;17.33;7.80;;;;;;;;;;4911016;29;21084;-70
2024/01/24 03:20:10;;;;;;;17.80;8.13;;;;;;;;;;4928135;28;20663;-71
2024/01/24 03:22:36;;;;;;;17.93;8.43;;;;;;;;;;4919397;29;20327;-70
2024/01/24 03:25:01;;;;;;;17.03;8.00;;;;;;;;;;4921888;29;20312;-71
2024/01/24 03:27:26;;;;;;;19.93;8.27;;;;;;;;;;4934173;29;20780;-71
2024/01/24 03:29:52;;;;;;;19.63;9.10;;;;;;;;;;4930982;29;20248;-71
2024/01/24 03:32:18;;;;;;;18.40;8.37;;;;;;;;;;4908219;29;20753;-70
2024/01/24 03:34:53;;;;;;;20.97;9.80;;;;;;;;;;4933087;29;20674;-71
2024/01/24 03:37:18;;;;;;;20.20;9.10;;;;;;;;;;4916197;28;20234;-71
2024/01/24 03:39:44;;;;;;;18.87;8.97;;;;;;;;;;4928747;29;20229;-71
2024/01/24 03:42:10;;;;;;;17.23;8.73;;;;;;;;;;4926292;29;20276;-71
2024/01/24 03:44:35;;;;;;;18.30;8.07;;;;;;;;;;4937573;28;20271;-71
2024/01/24 03:47:01;;;;;;;17.27;7.93;;;;;;;;;;4911502;29;20256;-71
2024/01/24 03:49:26;;;;;;;17.57;8.03;;;;;;;;;;4917859;29;20259;-75
2024/01/24 03:51:51;;;;;;;17.40;7.47;;;;;;;;;;4916325;29;20722;-75
2024/01/24 03:54:17;;;;;;;18.23;7.90;;;;;;;;;;4915508;29;20619;-75
2024/01/24 03:56:42;;;;;;;16.20;8.17;;;;;;;;;;4910711;29;20261;-75
2024/01/24 03:59:07;;;;;;;17.53;8.13;;;;;;;;;;4915245;29;20620;-75
2024/01/24 04:01:33;;;;;;;17.03;8.03;;;;;;;;;;4916456;29;20635;-74
2024/01/24 04:03:58;;;;;;;18.30;8.20;;;;;;;;;;4910323;29;20362;-74
2024/01/24 04:06:23;;;;;;;17.57;7.67;;;;;;;;;;4915355;29;20248;-74
2024/01/24 04:08:49;;;;;;;17.33;7.97;;;;;;;;;;4913940;29;20232;-75
2024/01/24 04:11:14;;;;;;;16.90;7.63;;;;;;;;;;4902098;28;20249;-74
2024/01/24 04:13:40;;;;;;;20.53;8.03;;;;;;;;;;4931264;28;20225;-74
2024/01/24 04:16:06;;;;;;;17.87;8.23;;;;;;;;;;4900911;28;20221;-73
2024/01/24 04:18:32;;;;;;;19.10;8.77;;;;;;;;;;4932399;28;20311;-73
2024/01/24 04:20:57;;;;;;;18.60;8.50;;;;;;;;;;4914767;29;20224;-73
2024/01/24 04:23:23;;;;;;;20.40;9.17;;;;;;;;;;4910047;29;20881;-74
2024/01/24 04:25:49;;;;;;;23.23;9.90;;;;;;;;;;4914142;29;20629;-74
2024/01/24 04:28:15;;;;;;;21.17;9.60;;;;;;;;;;4909743;29;20263;-73
2024/01/24 04:30:40;;;;;;;21.70;9.70;;;;;;;;;;4917724;29;20622;-73
2024/01/24 04:33:07;;;;;;;22.07;10.20;;;;;;;;;;4917665;28;20228;-73
2024/01/24 04:35:32;;;;;;;21.10;9.90;;;;;;;;;;4904462;29;20292;-74
2024/01/24 04:37:57;;;;;;;23.97;10.17;;;;;;;;;;4914342;29;20684;-74
2024/01/24 04:40:23;;;;;;;23.33;10.30;;;;;;;;;;4918086;28;20237;-74
2024/01/24 04:42:48;;;;;;;21.23;9.77;;;;;;;;;;4903186;29;20257;-73
2024/01/24 04:45:15;;;;;;;22.97;10.63;;;;;;;;;;4929286;28;20288;-74
2024/01/24 04:47:42;;;;;;;24.17;10.60;;;;;;;;;;4908354;29;20295;-73
2024/01/24 04:50:09;;;;;;;20.87;10.20;;;;;;;;;;4922412;29;20236;-73
2024/01/24 04:52:34;;;;;;;23.47;10.90;;;;;;;;;;4906797;29;20263;-73
2024/01/24 04:55:00;;;;;;;24.13;10.77;;;;;;;;;;4940875;28;20328;-74
2024/01/24 04:57:26;;;;;;;21.93;9.83;;;;;;;;;;4921315;29;20225;-74
2024/01/24 04:59:51;;;;;;;24.37;10.33;;;;;;;;;;4902498;29;20308;-74
2024/01/24 05:02:17;;;;;;;21.97;9.93;;;;;;;;;;4936935;28;20384;-75
2024/01/24 05:04:42;;;;;;;26.63;10.03;;;;;;;;;;4936424;28;20237;-74
2024/01/24 05:07:08;;;;;;;23.50;10.50;;;;;;;;;;4935387;29;20277;-74
2024/01/24 05:09:33;;;;;;;22.60;10.17;;;;;;;;;;4899849;29;20226;-74
2024/01/24 05:11:58;;;;;;;21.70;9.97;;;;;;;;;;4917552;29;20225;-75
2024/01/24 05:14:24;;;;;;;23.63;9.83;;;;;;;;;;4918163;29;20237;-74
2024/01/24 05:16:49;;;;;;;24.03;10.20;;;;;;;;;;4936477;29;20321;-74
2024/01/24 05:19:14;;;;;;;20.13;9.90;;;;;;;;;;4908378;29;20310;-74
2024/01/24 05:21:41;;;;;;;24.70;10.17;;;;;;;;;;4937986;28;20226;-74
2024/01/24 05:24:06;;;;;;;20.60;9.57;;;;;;;;;;4923802;29;20241;-73
2024/01/24 05:26:32;;;;;;;21.90;9.87;;;;;;;;;;4919252;29;20237;-74
2024/01/24 05:28:57;;;;;;;22.03;10.00;;;;;;;;;;4918369;29;20708;-74
2024/01/24 05:31:22;;;;;;;20.57;9.53;;;;;;;;;;4922180;28;20233;-73
2024/01/24 05:33:48;;;;;;;22.47;9.63;;;;;;;;;;4920000;29;20308;-74
2024/01/24 05:36:14;;;;;;;23.13;9.77;;;;;;;;;;4922474;29;20624;-74
2024/01/24 05:38:39;;;;;;;23.53;9.60;;;;;;;;;;4917627;29;20304;-75
2024/01/24 05:41:05;;;;;;;22.77;10.20;;;;;;;;;;4915771;29;20295;-75
2024/01/24 05:43:30;;;;;;;25.17;10.70;;;;;;;;;;4927358;29;20351;-74
2024/01/24 05:45:56;;;;;;;25.20;10.33;;;;;;;;;;4918768;29;20238;-74
2024/01/24 05:48:21;;;;;;;24.37;10.30;;;;;;;;;;4916378;29;20702;-74
2024/01/24 05:50:46;;;;;;;25.70;10.33;;;;;;;;;;4913416;29;20319;-75
2024/01/24 05:53:12;;;;;;;26.13;11.33;;;;;;;;;;4917917;29;20693;-73
2024/01/24 05:55:37;;;;;;;26.33;11.50;;;;;;;;;;4912473;29;20240;-74
2024/01/24 05:58:05;;;;;;;25.47;11.10;;;;;;;;;;4933236;29;20236;-75
2024/01/24 06:00:31;;;;;;;24.07;11.53;;;;;;;;;;4902299;29;20240;-74
2024/01/24 06:02:56;;;;;;;26.57;11.70;;;;;;;;;;4913452;29;20241;-74
2024/01/24 06:05:21;;;;;;;24.47;11.30;;;;;;;;;;4934205;28;20324;-74
2024/01/24 06:07:50;;;;;;;25.93;11.40;;;;;;;;;;4916100;28;20235;-73
2024/01/24 06:10:16;;;;;;;23.33;11.33;;;;;;;;;;4920434;29;20708;-74
2024/01/24 06:12:41;;;;;;;25.20;12.03;;;;;;;;;;4907881;29;20232;-74
2024/01/24 06:15:07;;;;;;;25.70;12.07;;;;;;;;;;4917709;28;20325;-75
2024/01/24 06:17:33;;;;;;;27.10;12.40;;;;;;;;;;4922205;29;20235;-75
2024/01/24 06:19:59;;;;;;;29.67;13.40;;;;;;;;;;4929883;28;20233;-74
2024/01/24 06:22:25;;;;;;;30.37;13.23;;;;;;;;;;4911565;29;20699;-74
2024/01/24 06:24:50;;;;;;;29.27;13.37;;;;;;;;;;4919282;29;20300;-75
2024/01/24 06:27:16;;;;;;;28.37;13.23;;;;;;;;;;4915372;29;20284;-74
2024/01/24 06:29:41;;;;;;;29.13;13.83;;;;;;;;;;4933581;29;20880;-75
2024/01/24 06:32:07;;;;;;;31.57;13.97;;;;;;;;;;4904436;29;20284;-75
2024/01/24 06:34:32;;;;;;;31.63;13.40;;;;;;;;;;4934604;29;20614;-74
2024/01/24 06:36:57;;;;;;;28.80;13.47;;;;;;;;;;4920439;29;20229;-74
2024/01/24 06:39:23;;;;;;;33.20;13.93;;;;;;;;;;4906934;28;20880;-74
2024/01/24 06:41:48;;;;;;;28.80;13.50;;;;;;;;;;4933426;28;20284;-75
2024/01/24 06:44:14;;;;;;;32.10;14.07;;;;;;;;;;4915845;29;20260;-74
2024/01/24 06:46:43;;;;;;;28.40;13.20;;;;;;;;;;4927942;29;20236;-74
2024/01/24 06:49:11;;;;;;;28.30;13.37;;;;;;;;;;4917748;29;20236;-75
2024/01/24 06:51:39;;;;;;;29.20;13.27;;;;;;;;;;4918235;29;20339;-73
2024/01/24 06:54:05;;;;;;;28.80;13.23;;;;;;;;;;4934637;28;20303;-74
2024/01/24 06:56:30;;;;;;;26.53;12.90;;;;;;;;;;4915520;29;20718;-73
2024/01/24 06:58:56;;;;;;;33.20;12.93;;;;;;;;;;4917060;29;20245;-74
2024/01/24 07:01:21;;;;;;;27.13;11.90;;;;;;;;;;4897070;29;20237;-73
2024/01/24 07:03:47;;;;;;;25.90;11.33;;;;;;;;;;4927254;29;20242;-73
2024/01/24 07:06:13;;;;;;;26.33;12.00;;;;;;;;;;4915912;29;20237;-74
2024/01/24 07:08:39;;;;;;;29.17;12.37;;;;;;;;;;4916675;29;20232;-73
2024/01/24 07:11:05;;;;;;;25.23;12.10;;;;;;;;;;4898564;29;20233;-71
2024/01/24 07:13:31;;;;;;;24.90;11.63;;;;;;;;;;4902840;29;20686;-71
2024/01/24 07:15:56;;;;;;;24.40;11.33;;;;;;;;;;4906147;29;20240;-73
2024/01/24 07:18:21;;;;;;;25.87;11.10;;;;;;;;;;4923258;29;20360;-70
2024/01/24 07:20:47;;;;;;;25.40;10.63;;;;;;;;;;4936943;28;20229;-70
2024/01/24 07:23:12;;;;;;;24.93;11.17;;;;;;;;;;4912388;28;20232;-70
2024/01/24 07:25:37;;;;;;;22.90;10.40;;;;;;;;;;4917500;29;20239;-70
2024/01/24 07:28:03;;;;;;;22.50;10.30;;;;;;;;;;4935060;29;20269;-70
2024/01/24 07:30:28;;;;;;;24.17;9.97;;;;;;;;;;4916808;29;20404;-70
2024/01/24 07:32:53;;;;;;;20.27;9.43;;;;;;;;;;4933824;28;20355;-71
2024/01/24 07:35:19;;;;;;;19.37;9.53;;;;;;;;;;4927671;28;20233;-71
2024/01/24 07:37:44;;;;;;;23.63;9.70;;;;;;;;;;4916358;29;20315;-70
2024/01/24 07:40:10;;;;;;;20.73;9.83;;;;;;;;;;4917554;28;20241;-70
2024/01/24 07:42:36;;;;;;;20.30;9.57;;;;;;;;;;4917346;29;20244;-71
2024/01/24 07:45:01;;;;;;;19.67;8.50;;;;;;;;;;4929551;28;20343;-71
2024/01/24 07:47:26;;;;;;;19.50;8.60;;;;;;;;;;4931777;29;20316;-72
2024/01/24 07:49:52;;;;;;;21.50;9.07;;;;;;;;;;4933574;28;20313;-71
2024/01/24 07:52:17;;;;;;;17.60;8.20;;;;;;;;;;4911940;28;20237;-71
2024/01/24 07:54:43;;;;;;;18.13;8.70;;;;;;;;;;4910586;29;20304;-71
2024/01/24 07:57:09;;;;;;;20.53;8.87;;;;;;;;;;4902485;28;20218;-71
2024/01/24 07:59:34;;;;;;;23.40;9.40;;;;;;;;;;4914984;29;20246;-71
2024/01/24 08:01:59;;;;;;;18.37;8.57;;;;;;;;;;4917699;29;20225;-70
2024/01/24 08:04:25;;;;;;;21.77;9.00;;;;;;;;;;4918849;28;20730;-70
2024/01/24 08:06:50;;;;;;;21.50;8.23;;;;;;;;;;4918478;29;21053;-70
2024/01/24 08:09:17;;;;;;;17.00;7.77;;;;;;;;;;4928856;28;20271;-71
2024/01/24 08:11:43;;;;;;;15.90;7.97;;;;;;;;;;4918886;29;20308;-71
2024/01/24 08:14:08;;;;;;;20.27;8.20;;;;;;;;;;4919226;29;20304;-71
2024/01/24 08:16:34;;;;;;;19.00;8.80;;;;;;;;;;4921541;29;20925;-69
2024/01/24 08:19:00;;;;;;;19.27;8.53;;;;;;;;;;4938630;28;20225;-70
2024/01/24 08:21:26;;;;;;;17.20;8.20;;;;;;;;;;4913494;28;20264;-70
2024/01/24 08:23:51;;;;;;;17.83;7.83;;;;;;;;;;4916766;29;20273;-71
2024/01/24 08:26:16;;;;;;;18.97;8.53;;;;;;;;;;4938376;28;20776;-70
2024/01/24 08:28:42;;;;;;;18.93;8.60;;;;;;;;;;4918756;29;20269;-70
2024/01/24 08:31:08;;;;;;;18.63;8.50;;;;;;;;;;4934293;28;20895;-71
2024/01/24 08:33:33;;;;;;;20.03;8.30;;;;;;;;;;4909108;29;20233;-71
2024/01/24 08:35:59;;;;;;;19.37;8.77;;;;;;;;;;4906364;29;20296;-71
2024/01/24 08:38:25;;;;;;;18.97;8.43;;;;;;;;;;4912766;29;20240;-70
2024/01/24 08:40:50;;;;;;;19.43;9.27;;;;;;;;;;4911331;29;20240;-71
2024/01/24 08:43:15;;;;;;;19.90;9.03;;;;;;;;;;4920678;28;20344;-70
2024/01/24 08:45:41;;;;;;;19.20;9.30;;;;;;;;;;4942474;28;20232;-71
2024/01/24 08:48:07;;;;;;;18.17;8.90;;;;;;;;;;4910841;29;20229;-69
2024/01/24 08:50:32;;;;;;;18.27;8.87;;;;;;;;;;4920435;29;20240;-71
2024/01/24 08:52:57;;;;;;;17.37;8.30;;;;;;;;;;4921075;29;20233;-71
2024/01/24 08:55:23;;;;;;;17.90;8.17;;;;;;;;;;4915711;29;20719;-70
2024/01/24 08:57:49;;;;;;;20.83;10.10;;;;;;;;;;4910164;29;20226;-75
2024/01/24 09:00:14;;;;;;;19.30;8.57;;;;;;;;;;4922483;28;20312;-76
2024/01/24 09:02:40;;;;;;;18.70;8.97;;;;;;;;;;4920245;29;20304;-75
2024/01/24 09:05:05;;;;;;;20.67;9.00;;;;;;;;;;4938143;28;20225;-75
2024/01/24 09:07:31;;;;;;;20.00;9.17;;;;;;;;;;4901563;29;20317;-74
2024/01/24 09:09:56;;;;;;;19.43;9.20;;;;;;;;;;4907968;29;20324;-75
2024/01/24 09:12:22;;;;;;;20.17;8.67;;;;;;;;;;4919835;28;20241;-75
2024/01/24 09:14:47;;;;;;;19.23;9.50;;;;;;;;;;4913746;29;21230;-74
2024/01/24 09:17:13;;;;;;;19.13;9.47;;;;;;;;;;4919064;28;20371;-74
2024/01/24 09:19:42;;;;;;;21.13;10.13;;;;;;;;;;4922769;29;21105;-73
2024/01/24 09:22:07;;;;;;;19.77;9.40;;;;;;;;;;4923952;28;20299;-75
2024/01/24 09:24:32;;;;;;;21.63;9.67;;;;;;;;;;4935907;28;20230;-74
2024/01/24 09:26:58;;;;;;;24.43;10.33;;;;;;;;;;4921151;29;20244;-75
2024/01/24 09:29:23;;;;;;;19.50;9.20;;;;;;;;;;4943013;28;20240;-77
2024/01/24 09:31:49;;;;;;;21.93;10.10;;;;;;;;;;4916217;29;20340;-75
2024/01/24 09:34:14;;;;;;;21.20;9.80;;;;;;;;;;4933340;28;20224;-74
2024/01/24 09:36:40;;;;;;;23.63;10.60;;;;;;;;;;4905669;29;20229;-75
2024/01/24 09:39:07;;;;;;;24.33;10.63;;;;;;;;;;4906092;29;20228;-76
2024/01/24 09:41:42;;;;;;;19.50;9.80;;;;;;;;;;4908224;29;20319;-75
2024/01/24 09:44:11;;;;;;;23.80;9.77;;;;;;;;;;4937151;28;20296;-75
2024/01/24 09:46:37;;;;;;;20.13;9.87;;;;;;;;;;4919552;29;20276;-73
2024/01/24 09:49:02;;;;;;;20.80;10.40;;;;;;;;;;4918654;28;20233;-74
2024/01/24 09:51:30;;;;;;;20.70;9.90;;;;;;;;;;4919276;29;20718;-74
2024/01/24 09:53:56;;;;;;;23.40;9.87;;;;;;;;;;4919260;29;20225;-74
2024/01/24 09:56:21;;;;;;;21.37;9.80;;;;;;;;;;4915591;29;20283;-74
2024/01/24 09:58:47;;;;;;;19.57;9.40;;;;;;;;;;4937039;29;20218;-74
2024/01/24 10:01:13;;;;;;;18.53;8.83;;;;;;;;;;4921171;29;20229;-73
2024/01/24 10:03:38;;;;;;;21.80;10.10;;;;;;;;;;4913879;29;20295;-73
2024/01/24 10:06:04;;;;;;;21.73;10.00;;;;;;;;;;4917708;29;20344;-74
2024/01/24 10:08:30;;;;;;;20.37;9.73;;;;;;;;;;4902910;29;20217;-74
2024/01/24 10:10:55;;;;;;;23.83;10.53;;;;;;;;;;4920026;29;20251;-74
2024/01/24 10:13:20;;;;;;;25.10;12.43;;;;;;;;;;4919044;29;20257;-73
2024/01/24 10:15:46;;;;;;;21.43;10.43;;;;;;;;;;4907823;29;20820;-74
2024/01/24 10:18:11;;;;;;;22.70;10.43;;;;;;;;;;4919629;29;20221;-74
2024/01/24 10:20:36;;;;;;;23.60;10.77;;;;;;;;;;4925185;29;20228;-73
2024/01/24 10:23:02;;;;;;;23.10;10.83;;;;;;;;;;4919658;28;20834;-73
2024/01/24 10:25:27;;;;;;;23.03;10.40;;;;;;;;;;4908840;29;20320;-74
2024/01/24 10:27:53;;;;;;;21.77;10.70;;;;;;;;;;4917411;29;20253;-75
2024/01/24 10:30:19;;;;;;;19.27;7.70;;;;;;;;;;4919955;29;20229;-75
2024/01/24 10:32:45;;;;;;;18.87;8.20;;;;;;;;;;4905634;29;20265;-74
2024/01/24 10:35:11;;;;;;;21.33;9.40;;;;;;;;;;4919409;29;20233;-74
2024/01/24 10:37:36;;;;;;;20.97;9.60;;;;;;;;;;4912697;29;20240;-75
2024/01/24 10:40:06;;;;;;;20.27;9.37;;;;;;;;;;4901946;28;20230;-76
2024/01/24 10:42:34;;;;;;;19.13;8.83;;;;;;;;;;4919824;29;20248;-74
2024/01/24 10:45:00;;;;;;;17.63;9.00;;;;;;;;;;4933740;29;20236;-74
2024/01/24 10:47:26;;;;;;;18.70;8.83;;;;;;;;;;4919114;29;20237;-74
2024/01/24 10:49:51;;;;;;;24.33;9.77;;;;;;;;;;4902933;28;20232;-75
2024/01/24 10:52:17;;;;;;;21.67;9.20;;;;;;;;;;4923880;28;20240;-74
2024/01/24 10:54:42;;;;;;;17.93;8.93;;;;;;;;;;4932163;28;20331;-74
2024/01/24 10:57:08;;;;;;;19.57;9.40;;;;;;;;;;4904260;28;20783;-74
2024/01/24 10:59:33;;;;;;;19.60;8.60;;;;;;;;;;4904964;29;20233;-74
2024/01/24 11:01:59;;;;;;;22.13;9.87;;;;;;;;;;4906311;29;20247;-75
2024/01/24 11:04:24;;;;;;;21.57;9.90;;;;;;;;;;4899029;29;20641;-74
2024/01/24 11:06:57;;;;;;;20.93;9.53;;;;;;;;;;4923264;29;20221;-75
2024/01/24 11:09:40;;;;;;;21.00;9.33;;;;;;;;;;4918202;29;20235;-74
2024/01/24 11:12:06;;;;;;;19.83;9.90;;;;;;;;;;4933312;28;20230;-74
2024/01/24 11:14:32;;;;;;;20.17;8.87;;;;;;;;;;4914892;29;20229;-74
2024/01/24 11:16:58;;;;;;;20.73;8.93;;;;;;;;;;4918720;29;20263;-74
2024/01/24 11:19:24;;;;;;;18.17;9.17;;;;;;;;;;4905154;28;20727;-74
2024/01/24 11:21:50;;;;;;;22.57;9.43;;;;;;;;;;4915292;29;20224;-76
2024/01/24 11:24:36;;;;;;;18.93;8.57;;;;;;;;;;4918528;28;20319;-74
2024/01/24 11:27:01;;;;;;;19.73;8.53;;;;;;;;;;4921236;28;20229;-74
2024/01/24 11:29:32;;;;;;;20.93;9.13;;;;;;;;;;4906314;29;20286;-73
2024/01/24 11:31:57;;;;;;;19.43;9.03;;;;;;;;;;4932907;29;20229;-74
2024/01/24 11:34:23;;;;;;;17.67;8.90;;;;;;;;;;4914604;28;20233;-74
2024/01/24 11:36:50;;;;;;;19.63;8.53;;;;;;;;;;4910993;29;20228;-74
2024/01/24 11:39:32;;;;;;;19.17;9.10;;;;;;;;;;4936513;28;20323;-74
2024/01/24 11:42:16;;;;;;;16.33;8.23;;;;;;;;;;4906235;29;20235;-76
2024/01/24 11:44:42;;;;;;;18.30;8.53;;;;;;;;;;4935684;28;20236;-69
2024/01/24 11:47:07;;;;;;;19.33;9.00;;;;;;;;;;4917586;28;20233;-70
2024/01/24 11:49:32;;;;;;;21.47;8.67;;;;;;;;;;4933762;28;20884;-69
2024/01/24 11:52:01;;;;;;;17.60;7.90;;;;;;;;;;4920612;29;20287;-69
2024/01/24 11:54:26;;;;;;;15.97;7.47;;;;;;;;;;4917488;29;20284;-69
2024/01/24 11:56:52;;;;;;;16.03;8.40;;;;;;;;;;4918708;29;20229;-69
2024/01/24 11:59:20;;;;;;;19.00;8.20;;;;;;;;;;4908809;29;21187;-69
2024/01/24 12:01:45;;;;;;;16.80;7.20;;;;;;;;;;4933408;28;20238;-69
2024/01/24 12:04:10;;;;;;;15.57;6.90;;;;;;;;;;4917266;28;20241;-70
2024/01/24 12:06:36;;;;;;;16.03;7.00;;;;;;;;;;4918215;29;20238;-69
2024/01/24 12:09:01;;;;;;;18.00;7.30;;;;;;;;;;4919231;29;20239;-70
2024/01/24 12:11:27;;;;;;;16.33;7.57;;;;;;;;;;4921383;29;20248;-70
2024/01/24 12:13:52;;;;;;;16.80;7.60;;;;;;;;;;4907555;29;20224;-73
2024/01/24 12:16:19;;;;;;;14.87;6.80;;;;;;;;;;4916288;29;20245;-76
2024/01/24 12:18:44;;;;;;;15.63;7.20;;;;;;;;;;4898174;29;20900;-73
2024/01/24 12:21:10;;;;;;;15.73;7.00;;;;;;;;;;4912522;29;20260;-74
2024/01/24 12:23:35;;;;;;;14.37;6.77;;;;;;;;;;4930437;29;20237;-75
2024/01/24 12:26:00;;;;;;;16.53;7.70;;;;;;;;;;4917393;29;20241;-75
2024/01/24 12:28:26;;;;;;;17.37;7.07;;;;;;;;;;4915048;29;20249;-76
2024/01/24 12:30:52;;;;;;;14.77;6.97;;;;;;;;;;4926620;29;20903;-72
2024/01/24 12:33:18;;;;;;;16.03;6.90;;;;;;;;;;4905077;28;20232;-73
2024/01/24 12:35:43;;;;;;;14.60;6.93;;;;;;;;;;4904182;29;20305;-74
2024/01/24 12:38:09;;;;;;;14.73;6.40;;;;;;;;;;4915894;29;20225;-75
2024/01/24 12:40:34;;;;;;;14.50;6.40;;;;;;;;;;4934848;28;20730;-76
2024/01/24 12:43:02;;;;;;;14.03;5.93;;;;;;;;;;4916905;29;20727;-76
2024/01/24 12:45:28;;;;;;;11.20;5.47;;;;;;;;;;4904501;29;20244;-74
2024/01/24 12:47:53;;;;;;;15.47;5.27;;;;;;;;;;4916644;29;20316;-75
2024/01/24 12:50:19;;;;;;;9.67;5.10;;;;;;;;;;4923854;29;20751;-77
2024/01/24 12:52:45;;;;;;;11.93;5.13;;;;;;;;;;4919820;29;20225;-74
2024/01/24 12:55:10;;;;;;;13.33;5.43;;;;;;;;;;4934264;29;20218;-76
2024/01/24 12:57:35;;;;;;;10.43;5.30;;;;;;;;;;4918111;29;20652;-75
2024/01/24 13:00:04;;;;;;;13.47;5.83;;;;;;;;;;4922204;29;20856;-75
2024/01/24 13:02:29;;;;;;;17.70;6.00;;;;;;;;;;4919603;29;20261;-76
2024/01/24 13:04:54;;;;;;;13.63;5.83;;;;;;;;;;4914400;29;20311;-77
2024/01/24 13:07:20;;;;;;;14.70;6.40;;;;;;;;;;4917021;29;20781;-75
2024/01/24 13:09:45;;;;;;;15.63;6.77;;;;;;;;;;4913870;29;20228;-76
2024/01/24 13:12:11;;;;;;;16.10;6.83;;;;;;;;;;4927029;29;20229;-77
2024/01/24 13:14:36;;;;;;;15.67;6.37;;;;;;;;;;4927854;29;20874;-76
2024/01/24 13:17:04;;;;;;;16.70;6.23;;;;;;;;;;4907158;29;20237;-74
2024/01/24 13:19:30;;;;;;;14.23;6.13;;;;;;;;;;4934237;29;20369;-77
2024/01/24 13:21:56;;;;;;;12.50;5.70;;;;;;;;;;4914747;29;20295;-75
2024/01/24 13:24:21;;;;;;;13.50;6.30;;;;;;;;;;4926820;29;20237;-76
2024/01/24 13:26:47;;;;;;;14.13;5.70;;;;;;;;;;4913969;29;20232;-76
2024/01/24 13:29:13;;;;;;;12.77;5.70;;;;;;;;;;4909728;28;20809;-75
2024/01/24 13:31:38;;;;;;;15.33;6.00;;;;;;;;;;4914002;29;20327;-76
2024/01/24 13:34:03;;;;;;;11.23;5.80;;;;;;;;;;4923613;28;20227;-76
2024/01/24 13:36:29;;;;;;;13.27;6.10;;;;;;;;;;4919087;29;20715;-76
2024/01/24 13:38:54;;;;;;;14.03;5.80;;;;;;;;;;4919995;29;20243;-75
2024/01/24 13:41:21;;;;;;;12.60;6.10;;;;;;;;;;4919725;29;20225;-77
2024/01/24 13:43:46;;;;;;;13.67;6.17;;;;;;;;;;4937535;28;20241;-76
2024/01/24 13:46:11;;;;;;;14.40;6.27;;;;;;;;;;4913285;29;20805;-77
2024/01/24 13:48:37;;;;;;;13.33;6.00;;;;;;;;;;4922228;29;20710;-76
2024/01/24 13:51:02;;;;;;;11.33;5.67;;;;;;;;;;4912232;29;20867;-69
2024/01/24 13:53:28;;;;;;;14.13;5.63;;;;;;;;;;4910254;29;20233;-69
2024/01/24 13:55:53;;;;;;;11.47;5.87;;;;;;;;;;4920748;29;20237;-69
2024/01/24 13:58:19;;;;;;;12.20;5.27;;;;;;;;;;4906157;29;20232;-70
2024/01/24 14:00:45;;;;;;;11.27;5.53;;;;;;;;;;4912654;29;20233;-70
2024/01/24 14:03:10;;;;;;;13.30;5.90;;;;;;;;;;4918804;29;20644;-70
2024/01/24 14:05:36;;;;;;;12.90;6.27;;;;;;;;;;4917986;29;20225;-69
2024/01/24 14:08:02;;;;;;;11.90;5.83;;;;;;;;;;4935861;28;20277;-71
2024/01/24 14:10:27;;;;;;;12.23;5.57;;;;;;;;;;4904149;29;20268;-70
2024/01/24 14:12:53;;;;;;;11.60;5.67;;;;;;;;;;4937454;28;20762;-70
2024/01/24 14:15:18;;;;;;;9.93;5.70;;;;;;;;;;4914599;29;20221;-70
2024/01/24 14:17:44;;;;;;;13.33;6.30;;;;;;;;;;4910648;29;20775;-70